sensor_id;sensor_type;location;lat;lon;timestamp;temperature;humidity
6865;DHT22;3471;49.678;8.388;2023-04-30T00:00:11;13.80;99.90
6865;DHT22;3471;49.678;8.388;2023-04-30T00:02:38;13.80;99.90
6865;DHT22;3471;49.678;8.388;2023-04-30T00:05:04;13.80;99.90
6865;DHT22;3471;49.678;8.388;2023-04-30T00:07:29;13.80;99.90
6865;DHT22;3471;49.678;8.388;2023-04-30T00:09:56;13.70;99.90
6865;DHT22;3471;49.678;8.388;2023-04-30T00:12:22;13.80;99.90
6865;DHT22;3471;49.678;8.388;2023-04-30T00:14:47;13.70;99.90
6865;DHT22;3471;49.678;8.388;2023-04-30T00:17:13;13.70;99.90
6865;DHT22;3471;49.678;8.388;2023-04-30T00:19:40;13.70;99.90
6865;DHT22;3471;49.678;8.388;2023-04-30T00:22:06;13.70;99.90
6865;DHT22;3471;49.678;8.388;2023-04-30T00:24:31;13.70;99.90
6865;DHT22;3471;49.678;8.388;2023-04-30T00:26:57;13.70;99.90
6865;DHT22;3471;49.678;8.388;2023-04-30T00:29:22;13.70;99.90
6865;DHT22;3471;49.678;8.388;2023-04-30T00:31:48;13.70;99.90
6865;DHT22;3471;49.678;8.388;2023-04-30T00:34:13;13.70;99.90
6865;DHT22;3471;49.678;8.388;2023-04-30T00:36:39;13.70;99.90
6865;DHT22;3471;49.678;8.388;2023-04-30T00:39:05;13.70;99.90
6865;DHT22;3471;49.678;8.388;2023-04-30T00:41:31;13.70;99.90
6865;DHT22;3471;49.678;8.388;2023-04-30T00:43:58;13.70;99.90
6865;DHT22;3471;49.678;8.388;2023-04-30T00:46:23;13.70;99.90
6865;DHT22;3471;49.678;8.388;2023-04-30T00:48:49;13.70;99.90
6865;DHT22;3471;49.678;8.388;2023-04-30T00:51:15;13.60;99.90
6865;DHT22;3471;49.678;8.388;2023-04-30T00:53:41;13.70;99.90
6865;DHT22;3471;49.678;8.388;2023-04-30T00:56:08;13.70;99.90
6865;DHT22;3471;49.678;8.388;2023-04-30T00:58:34;13.70;99.90
6865;DHT22;3471;49.678;8.388;2023-04-30T01:01:01;13.60;99.90
6865;DHT22;3471;49.678;8.388;2023-04-30T01:03:27;13.60;99.90
6865;DHT22;3471;49.678;8.388;2023-04-30T01:05:53;13.60;99.90
6865;DHT22;3471;49.678;8.388;2023-04-30T01:08:19;13.60;99.90
6865;DHT22;3471;49.678;8.388;2023-04-30T01:10:53;13.60;99.90
6865;DHT22;3471;49.678;8.388;2023-04-30T01:13:27;13.60;99.90
6865;DHT22;3471;49.678;8.388;2023-04-30T01:16:33;13.60;99.90
6865;DHT22;3471;49.678;8.388;2023-04-30T01:19:09;13.60;99.90
6865;DHT22;3471;49.678;8.388;2023-04-30T01:21:41;13.50;99.90
6865;DHT22;3471;49.678;8.388;2023-04-30T01:24:48;13.50;99.90
6865;DHT22;3471;49.678;8.388;2023-04-30T01:29:49;13.60;99.90
6865;DHT22;3471;49.678;8.388;2023-04-30T01:32:16;13.60;99.90
6865;DHT22;3471;49.678;8.388;2023-04-30T01:34:42;13.60;99.90
6865;DHT22;3471;49.678;8.388;2023-04-30T01:40:23;13.60;99.90
6865;DHT22;3471;49.678;8.388;2023-04-30T01:43:04;13.50;99.90
6865;DHT22;3471;49.678;8.388;2023-04-30T01:45:48;13.60;99.90
6865;DHT22;3471;49.678;8.388;2023-04-30T01:48:21;13.60;99.90
6865;DHT22;3471;49.678;8.388;2023-04-30T01:50:54;13.60;99.90
6865;DHT22;3471;49.678;8.388;2023-04-30T01:53:39;13.50;99.90
6865;DHT22;3471;49.678;8.388;2023-04-30T01:56:10;13.50;99.90
6865;DHT22;3471;49.678;8.388;2023-04-30T01:58:37;13.50;99.90
6865;DHT22;3471;49.678;8.388;2023-04-30T02:01:04;13.50;99.90
6865;DHT22;3471;49.678;8.388;2023-04-30T02:03:31;13.50;99.90
6865;DHT22;3471;49.678;8.388;2023-04-30T02:05:57;13.60;99.90
6865;DHT22;3471;49.678;8.388;2023-04-30T02:08:23;13.60;99.90
6865;DHT22;3471;49.678;8.388;2023-04-30T02:10:49;13.50;99.90
6865;DHT22;3471;49.678;8.388;2023-04-30T02:13:15;13.50;99.90
6865;DHT22;3471;49.678;8.388;2023-04-30T02:15:40;13.50;99.90
6865;DHT22;3471;49.678;8.388;2023-04-30T02:18:06;13.50;99.90
6865;DHT22;3471;49.678;8.388;2023-04-30T02:20:31;13.50;99.90
6865;DHT22;3471;49.678;8.388;2023-04-30T02:22:57;13.50;99.90
6865;DHT22;3471;49.678;8.388;2023-04-30T02:25:22;13.50;99.90
6865;DHT22;3471;49.678;8.388;2023-04-30T02:27:48;13.50;99.90
6865;DHT22;3471;49.678;8.388;2023-04-30T02:30:15;13.50;99.90
6865;DHT22;3471;49.678;8.388;2023-04-30T02:32:41;13.50;99.90
6865;DHT22;3471;49.678;8.388;2023-04-30T02:35:07;13.50;99.90
6865;DHT22;3471;49.678;8.388;2023-04-30T02:37:32;13.50;99.90
6865;DHT22;3471;49.678;8.388;2023-04-30T02:39:58;13.40;99.90
6865;DHT22;3471;49.678;8.388;2023-04-30T02:42:23;13.40;99.90
6865;DHT22;3471;49.678;8.388;2023-04-30T02:44:49;13.40;99.90
6865;DHT22;3471;49.678;8.388;2023-04-30T02:47:15;13.30;99.90
6865;DHT22;3471;49.678;8.388;2023-04-30T02:49:40;13.30;99.90
6865;DHT22;3471;49.678;8.388;2023-04-30T02:52:06;13.30;99.90
6865;DHT22;3471;49.678;8.388;2023-04-30T02:54:33;13.30;99.90
6865;DHT22;3471;49.678;8.388;2023-04-30T02:56:59;13.30;99.90
6865;DHT22;3471;49.678;8.388;2023-04-30T02:59:25;13.30;99.90
6865;DHT22;3471;49.678;8.388;2023-04-30T03:01:51;13.30;99.90
6865;DHT22;3471;49.678;8.388;2023-04-30T03:04:17;13.30;99.90
6865;DHT22;3471;49.678;8.388;2023-04-30T03:06:42;13.30;99.90
6865;DHT22;3471;49.678;8.388;2023-04-30T03:09:08;13.20;99.90
6865;DHT22;3471;49.678;8.388;2023-04-30T03:11:33;13.20;99.90
6865;DHT22;3471;49.678;8.388;2023-04-30T03:14:02;13.20;99.90
6865;DHT22;3471;49.678;8.388;2023-04-30T03:16:28;13.20;99.90
6865;DHT22;3471;49.678;8.388;2023-04-30T03:18:55;13.20;99.90
6865;DHT22;3471;49.678;8.388;2023-04-30T03:21:21;13.20;99.90
6865;DHT22;3471;49.678;8.388;2023-04-30T03:23:47;13.20;99.90
6865;DHT22;3471;49.678;8.388;2023-04-30T03:26:13;13.20;99.90
6865;DHT22;3471;49.678;8.388;2023-04-30T03:28:38;13.10;99.90
6865;DHT22;3471;49.678;8.388;2023-04-30T03:31:04;13.10;99.90
6865;DHT22;3471;49.678;8.388;2023-04-30T03:33:33;13.10;99.90
6865;DHT22;3471;49.678;8.388;2023-04-30T03:35:58;13.10;99.90
6865;DHT22;3471;49.678;8.388;2023-04-30T03:38:24;13.10;99.90
6865;DHT22;3471;49.678;8.388;2023-04-30T03:40:50;13.10;99.90
6865;DHT22;3471;49.678;8.388;2023-04-30T03:43:15;13.10;99.90
6865;DHT22;3471;49.678;8.388;2023-04-30T03:45:41;13.10;99.90
6865;DHT22;3471;49.678;8.388;2023-04-30T03:48:07;13.20;99.90
6865;DHT22;3471;49.678;8.388;2023-04-30T03:50:32;13.20;99.90
6865;DHT22;3471;49.678;8.388;2023-04-30T03:52:58;13.10;99.90
6865;DHT22;3471;49.678;8.388;2023-04-30T03:55:23;13.20;99.90
6865;DHT22;3471;49.678;8.388;2023-04-30T03:57:50;13.20;99.90
6865;DHT22;3471;49.678;8.388;2023-04-30T04:00:16;13.20;99.90
6865;DHT22;3471;49.678;8.388;2023-04-30T04:02:41;13.20;99.90
6865;DHT22;3471;49.678;8.388;2023-04-30T04:05:07;13.10;99.90
6865;DHT22;3471;49.678;8.388;2023-04-30T04:07:33;13.10;99.90
6865;DHT22;3471;49.678;8.388;2023-04-30T04:09:58;13.10;99.90
6865;DHT22;3471;49.678;8.388;2023-04-30T04:12:24;13.10;99.90
6865;DHT22;3471;49.678;8.388;2023-04-30T04:14:49;13.10;99.90
6865;DHT22;3471;49.678;8.388;2023-04-30T04:17:15;13.10;99.90
6865;DHT22;3471;49.678;8.388;2023-04-30T04:19:41;13.10;99.90
6865;DHT22;3471;49.678;8.388;2023-04-30T04:22:06;13.10;99.90
6865;DHT22;3471;49.678;8.388;2023-04-30T04:24:32;13.00;99.90
6865;DHT22;3471;49.678;8.388;2023-04-30T04:26:58;13.00;99.90
6865;DHT22;3471;49.678;8.388;2023-04-30T04:29:24;13.00;99.90
6865;DHT22;3471;49.678;8.388;2023-04-30T04:31:50;13.00;99.90
6865;DHT22;3471;49.678;8.388;2023-04-30T04:34:15;13.00;99.90
6865;DHT22;3471;49.678;8.388;2023-04-30T04:36:41;13.00;99.90
6865;DHT22;3471;49.678;8.388;2023-04-30T04:39:07;13.00;99.90
6865;DHT22;3471;49.678;8.388;2023-04-30T04:41:33;12.90;99.90
6865;DHT22;3471;49.678;8.388;2023-04-30T04:44:00;12.90;99.90
6865;DHT22;3471;49.678;8.388;2023-04-30T04:46:30;12.90;99.90
6865;DHT22;3471;49.678;8.388;2023-04-30T04:48:56;12.90;99.90
6865;DHT22;3471;49.678;8.388;2023-04-30T04:51:22;12.90;99.90
6865;DHT22;3471;49.678;8.388;2023-04-30T04:53:47;12.90;99.90
6865;DHT22;3471;49.678;8.388;2023-04-30T04:56:13;12.90;99.90
6865;DHT22;3471;49.678;8.388;2023-04-30T04:58:40;12.80;99.90
6865;DHT22;3471;49.678;8.388;2023-04-30T05:01:05;12.90;99.90
6865;DHT22;3471;49.678;8.388;2023-04-30T05:03:33;12.90;99.90
6865;DHT22;3471;49.678;8.388;2023-04-30T05:06:01;12.90;99.90
6865;DHT22;3471;49.678;8.388;2023-04-30T05:08:27;12.90;99.90
6865;DHT22;3471;49.678;8.388;2023-04-30T05:10:52;12.90;99.90
6865;DHT22;3471;49.678;8.388;2023-04-30T05:13:18;13.00;99.90
6865;DHT22;3471;49.678;8.388;2023-04-30T05:15:43;12.90;99.90
6865;DHT22;3471;49.678;8.388;2023-04-30T05:18:09;13.00;99.90
6865;DHT22;3471;49.678;8.388;2023-04-30T05:20:34;12.90;99.90
6865;DHT22;3471;49.678;8.388;2023-04-30T05:23:00;13.00;99.90
6865;DHT22;3471;49.678;8.388;2023-04-30T05:25:26;13.00;99.90
6865;DHT22;3471;49.678;8.388;2023-04-30T05:27:51;13.10;99.90
6865;DHT22;3471;49.678;8.388;2023-04-30T05:30:17;13.10;99.90
6865;DHT22;3471;49.678;8.388;2023-04-30T05:32:43;13.10;99.90
6865;DHT22;3471;49.678;8.388;2023-04-30T05:35:15;13.10;99.90
6865;DHT22;3471;49.678;8.388;2023-04-30T05:37:40;13.20;99.90
6865;DHT22;3471;49.678;8.388;2023-04-30T05:40:07;13.20;99.90
6865;DHT22;3471;49.678;8.388;2023-04-30T05:42:33;13.20;99.90
6865;DHT22;3471;49.678;8.388;2023-04-30T05:45:00;13.30;99.90
6865;DHT22;3471;49.678;8.388;2023-04-30T05:47:26;13.30;99.90
6865;DHT22;3471;49.678;8.388;2023-04-30T05:49:51;13.30;99.90
6865;DHT22;3471;49.678;8.388;2023-04-30T05:52:17;13.40;99.90
6865;DHT22;3471;49.678;8.388;2023-04-30T05:54:42;13.40;99.90
6865;DHT22;3471;49.678;8.388;2023-04-30T05:57:08;13.40;99.90
6865;DHT22;3471;49.678;8.388;2023-04-30T05:59:34;13.50;99.90
6865;DHT22;3471;49.678;8.388;2023-04-30T06:01:59;13.50;99.90
6865;DHT22;3471;49.678;8.388;2023-04-30T06:04:25;13.50;99.90
6865;DHT22;3471;49.678;8.388;2023-04-30T06:06:50;13.50;99.90
6865;DHT22;3471;49.678;8.388;2023-04-30T06:09:16;13.60;99.90
6865;DHT22;3471;49.678;8.388;2023-04-30T06:11:41;13.60;99.90
6865;DHT22;3471;49.678;8.388;2023-04-30T06:14:09;13.60;99.90
6865;DHT22;3471;49.678;8.388;2023-04-30T06:16:35;13.60;99.90
6865;DHT22;3471;49.678;8.388;2023-04-30T06:19:01;13.70;99.90
6865;DHT22;3471;49.678;8.388;2023-04-30T06:21:26;13.70;99.90
6865;DHT22;3471;49.678;8.388;2023-04-30T06:23:52;13.70;99.90
6865;DHT22;3471;49.678;8.388;2023-04-30T06:26:18;13.80;99.90
6865;DHT22;3471;49.678;8.388;2023-04-30T06:28:44;13.80;99.90
6865;DHT22;3471;49.678;8.388;2023-04-30T06:31:10;13.90;99.90
6865;DHT22;3471;49.678;8.388;2023-04-30T06:33:36;14.00;99.90
6865;DHT22;3471;49.678;8.388;2023-04-30T06:36:01;14.10;99.90
6865;DHT22;3471;49.678;8.388;2023-04-30T06:38:27;14.20;99.90
6865;DHT22;3471;49.678;8.388;2023-04-30T06:40:53;14.20;99.90
6865;DHT22;3471;49.678;8.388;2023-04-30T06:43:18;14.30;99.90
6865;DHT22;3471;49.678;8.388;2023-04-30T06:45:44;14.40;99.90
6865;DHT22;3471;49.678;8.388;2023-04-30T06:48:09;14.40;99.90
6865;DHT22;3471;49.678;8.388;2023-04-30T06:50:35;14.40;99.90
6865;DHT22;3471;49.678;8.388;2023-04-30T06:53:08;14.50;99.90
6865;DHT22;3471;49.678;8.388;2023-04-30T06:55:33;14.60;99.90
6865;DHT22;3471;49.678;8.388;2023-04-30T06:57:59;14.70;99.90
6865;DHT22;3471;49.678;8.388;2023-04-30T07:00:24;14.90;99.90
6865;DHT22;3471;49.678;8.388;2023-04-30T07:02:50;15.00;99.90
6865;DHT22;3471;49.678;8.388;2023-04-30T07:05:16;15.10;99.90
6865;DHT22;3471;49.678;8.388;2023-04-30T07:07:43;15.30;99.90
6865;DHT22;3471;49.678;8.388;2023-04-30T07:10:08;15.40;99.90
6865;DHT22;3471;49.678;8.388;2023-04-30T07:12:34;15.50;99.90
6865;DHT22;3471;49.678;8.388;2023-04-30T07:15:00;15.60;99.90
6865;DHT22;3471;49.678;8.388;2023-04-30T07:17:25;15.60;99.90
6865;DHT22;3471;49.678;8.388;2023-04-30T07:19:51;15.70;99.90
6865;DHT22;3471;49.678;8.388;2023-04-30T07:22:16;15.70;99.90
6865;DHT22;3471;49.678;8.388;2023-04-30T07:24:42;15.80;99.90
6865;DHT22;3471;49.678;8.388;2023-04-30T07:27:07;15.90;99.90
6865;DHT22;3471;49.678;8.388;2023-04-30T07:29:34;16.00;99.90
6865;DHT22;3471;49.678;8.388;2023-04-30T07:31:59;16.00;99.90
6865;DHT22;3471;49.678;8.388;2023-04-30T07:34:25;16.20;99.90
6865;DHT22;3471;49.678;8.388;2023-04-30T07:36:52;16.30;99.90
6865;DHT22;3471;49.678;8.388;2023-04-30T07:39:17;16.40;99.90
6865;DHT22;3471;49.678;8.388;2023-04-30T07:41:43;16.60;99.90
6865;DHT22;3471;49.678;8.388;2023-04-30T07:44:09;16.80;99.90
6865;DHT22;3471;49.678;8.388;2023-04-30T07:46:35;16.90;99.90
6865;DHT22;3471;49.678;8.388;2023-04-30T07:49:01;17.20;99.90
6865;DHT22;3471;49.678;8.388;2023-04-30T07:51:27;17.30;99.90
6865;DHT22;3471;49.678;8.388;2023-04-30T07:53:53;17.40;99.90
6865;DHT22;3471;49.678;8.388;2023-04-30T07:56:18;17.60;99.90
6865;DHT22;3471;49.678;8.388;2023-04-30T07:58:44;17.70;99.90
6865;DHT22;3471;49.678;8.388;2023-04-30T08:01:10;17.80;99.90
6865;DHT22;3471;49.678;8.388;2023-04-30T08:03:35;17.90;99.90
6865;DHT22;3471;49.678;8.388;2023-04-30T08:06:01;17.90;99.90
6865;DHT22;3471;49.678;8.388;2023-04-30T08:08:27;18.00;99.90
6865;DHT22;3471;49.678;8.388;2023-04-30T08:10:53;18.10;99.90
6865;DHT22;3471;49.678;8.388;2023-04-30T08:13:18;18.20;99.90
6865;DHT22;3471;49.678;8.388;2023-04-30T08:15:45;18.20;99.90
6865;DHT22;3471;49.678;8.388;2023-04-30T08:18:10;18.20;99.90
6865;DHT22;3471;49.678;8.388;2023-04-30T08:20:36;18.30;99.90
6865;DHT22;3471;49.678;8.388;2023-04-30T08:23:02;18.40;99.90
6865;DHT22;3471;49.678;8.388;2023-04-30T08:25:27;18.40;99.90
6865;DHT22;3471;49.678;8.388;2023-04-30T08:27:53;18.40;99.90
6865;DHT22;3471;49.678;8.388;2023-04-30T08:30:18;18.50;99.90
6865;DHT22;3471;49.678;8.388;2023-04-30T08:32:44;18.60;99.90
6865;DHT22;3471;49.678;8.388;2023-04-30T08:35:10;18.70;99.90
6865;DHT22;3471;49.678;8.388;2023-04-30T08:37:35;18.80;99.90
6865;DHT22;3471;49.678;8.388;2023-04-30T08:40:01;18.80;99.90
6865;DHT22;3471;49.678;8.388;2023-04-30T08:42:30;18.90;99.90
6865;DHT22;3471;49.678;8.388;2023-04-30T08:44:59;19.10;99.90
6865;DHT22;3471;49.678;8.388;2023-04-30T08:47:26;19.30;99.90
6865;DHT22;3471;49.678;8.388;2023-04-30T08:49:52;19.40;99.90
6865;DHT22;3471;49.678;8.388;2023-04-30T08:52:18;19.50;99.90
6865;DHT22;3471;49.678;8.388;2023-04-30T08:54:45;19.60;99.90
6865;DHT22;3471;49.678;8.388;2023-04-30T08:57:11;19.70;99.90
6865;DHT22;3471;49.678;8.388;2023-04-30T08:59:37;19.90;99.90
6865;DHT22;3471;49.678;8.388;2023-04-30T09:02:03;20.00;99.90
6865;DHT22;3471;49.678;8.388;2023-04-30T09:04:29;20.10;99.90
6865;DHT22;3471;49.678;8.388;2023-04-30T09:06:55;20.30;99.90
6865;DHT22;3471;49.678;8.388;2023-04-30T09:09:30;20.30;99.90
6865;DHT22;3471;49.678;8.388;2023-04-30T09:14:37;20.30;99.90
6865;DHT22;3471;49.678;8.388;2023-04-30T09:17:04;20.30;99.90
6865;DHT22;3471;49.678;8.388;2023-04-30T09:19:30;20.50;99.90
6865;DHT22;3471;49.678;8.388;2023-04-30T09:21:56;20.50;99.90
6865;DHT22;3471;49.678;8.388;2023-04-30T09:24:22;20.60;99.90
6865;DHT22;3471;49.678;8.388;2023-04-30T09:26:50;20.60;99.90
6865;DHT22;3471;49.678;8.388;2023-04-30T09:29:16;20.60;99.90
6865;DHT22;3471;49.678;8.388;2023-04-30T09:31:46;20.60;99.90
6865;DHT22;3471;49.678;8.388;2023-04-30T09:34:12;20.60;99.90
6865;DHT22;3471;49.678;8.388;2023-04-30T09:36:53;20.60;99.90
6865;DHT22;3471;49.678;8.388;2023-04-30T09:39:19;20.70;99.90
6865;DHT22;3471;49.678;8.388;2023-04-30T09:41:45;20.80;99.90
6865;DHT22;3471;49.678;8.388;2023-04-30T09:44:30;20.70;99.90
6865;DHT22;3471;49.678;8.388;2023-04-30T09:46:57;20.80;99.90
6865;DHT22;3471;49.678;8.388;2023-04-30T09:49:25;20.90;99.90
6865;DHT22;3471;49.678;8.388;2023-04-30T09:51:59;20.90;99.90
6865;DHT22;3471;49.678;8.388;2023-04-30T09:54:30;20.80;99.90
6865;DHT22;3471;49.678;8.388;2023-04-30T09:57:00;20.80;99.90
6865;DHT22;3471;49.678;8.388;2023-04-30T09:59:31;20.80;99.90
6865;DHT22;3471;49.678;8.388;2023-04-30T10:02:00;20.80;99.90
6865;DHT22;3471;49.678;8.388;2023-04-30T10:04:29;21.00;99.90
6865;DHT22;3471;49.678;8.388;2023-04-30T10:06:57;21.10;99.90
6865;DHT22;3471;49.678;8.388;2023-04-30T10:09:27;21.10;99.90
6865;DHT22;3471;49.678;8.388;2023-04-30T10:11:55;21.00;99.90
6865;DHT22;3471;49.678;8.388;2023-04-30T10:14:22;21.00;99.90
6865;DHT22;3471;49.678;8.388;2023-04-30T10:17:12;20.90;99.90
6865;DHT22;3471;49.678;8.388;2023-04-30T10:19:39;20.90;99.90
6865;DHT22;3471;49.678;8.388;2023-04-30T10:22:08;21.10;99.90
6865;DHT22;3471;49.678;8.388;2023-04-30T10:24:35;21.40;99.90
6865;DHT22;3471;49.678;8.388;2023-04-30T10:27:02;21.70;99.90
6865;DHT22;3471;49.678;8.388;2023-04-30T10:29:27;21.90;99.90
6865;DHT22;3471;49.678;8.388;2023-04-30T10:31:53;22.00;99.90
6865;DHT22;3471;49.678;8.388;2023-04-30T10:37:06;22.00;99.90
6865;DHT22;3471;49.678;8.388;2023-04-30T10:39:34;22.00;99.90
6865;DHT22;3471;49.678;8.388;2023-04-30T10:42:04;22.00;99.90
6865;DHT22;3471;49.678;8.388;2023-04-30T10:44:35;22.00;99.90
6865;DHT22;3471;49.678;8.388;2023-04-30T10:47:02;22.00;99.90
6865;DHT22;3471;49.678;8.388;2023-04-30T10:49:28;22.20;99.90
6865;DHT22;3471;49.678;8.388;2023-04-30T10:51:54;22.40;99.90
6865;DHT22;3471;49.678;8.388;2023-04-30T10:56:52;23.00;99.90
6865;DHT22;3471;49.678;8.388;2023-04-30T10:59:18;23.20;99.90
6865;DHT22;3471;49.678;8.388;2023-04-30T11:01:57;23.30;99.20
6865;DHT22;3471;49.678;8.388;2023-04-30T11:04:23;23.40;99.90
6865;DHT22;3471;49.678;8.388;2023-04-30T11:09:43;23.50;99.90
6865;DHT22;3471;49.678;8.388;2023-04-30T11:12:19;23.70;99.90
6865;DHT22;3471;49.678;8.388;2023-04-30T11:15:29;23.80;99.60
6865;DHT22;3471;49.678;8.388;2023-04-30T11:17:47;23.70;96.60
6865;DHT22;3471;49.678;8.388;2023-04-30T11:20:17;23.80;96.90
6865;DHT22;3471;49.678;8.388;2023-04-30T11:22:44;24.00;99.90
6865;DHT22;3471;49.678;8.388;2023-04-30T11:25:11;24.20;99.90
6865;DHT22;3471;49.678;8.388;2023-04-30T11:27:43;24.50;99.90
6865;DHT22;3471;49.678;8.388;2023-04-30T11:30:16;24.80;98.90
6865;DHT22;3471;49.678;8.388;2023-04-30T11:32:46;24.90;99.90
6865;DHT22;3471;49.678;8.388;2023-04-30T11:35:16;25.00;98.40
6865;DHT22;3471;49.678;8.388;2023-04-30T11:37:43;25.10;99.40
6865;DHT22;3471;49.678;8.388;2023-04-30T11:40:11;25.30;98.80
6865;DHT22;3471;49.678;8.388;2023-04-30T11:42:38;25.40;96.40
6865;DHT22;3471;49.678;8.388;2023-04-30T11:45:12;25.50;99.90
6865;DHT22;3471;49.678;8.388;2023-04-30T11:47:52;25.70;98.70
6865;DHT22;3471;49.678;8.388;2023-04-30T11:50:20;25.90;97.70
6865;DHT22;3471;49.678;8.388;2023-04-30T11:52:52;26.20;98.20
6865;DHT22;3471;49.678;8.388;2023-04-30T11:55:22;26.40;97.90
6865;DHT22;3471;49.678;8.388;2023-04-30T11:57:50;26.60;99.10
6865;DHT22;3471;49.678;8.388;2023-04-30T12:00:18;26.80;95.00
6865;DHT22;3471;49.678;8.388;2023-04-30T12:02:46;27.00;96.50
6865;DHT22;3471;49.678;8.388;2023-04-30T12:05:19;27.10;97.40
6865;DHT22;3471;49.678;8.388;2023-04-30T12:07:56;27.30;97.80
6865;DHT22;3471;49.678;8.388;2023-04-30T12:10:22;27.50;94.50
6865;DHT22;3471;49.678;8.388;2023-04-30T12:12:49;27.60;95.00
6865;DHT22;3471;49.678;8.388;2023-04-30T12:15:23;27.50;92.80
6865;DHT22;3471;49.678;8.388;2023-04-30T12:17:56;27.40;95.10
6865;DHT22;3471;49.678;8.388;2023-04-30T12:20:25;27.10;94.90
6865;DHT22;3471;49.678;8.388;2023-04-30T12:22:52;27.10;95.60
6865;DHT22;3471;49.678;8.388;2023-04-30T12:25:20;27.10;92.60
6865;DHT22;3471;49.678;8.388;2023-04-30T12:27:58;27.20;90.70
6865;DHT22;3471;49.678;8.388;2023-04-30T12:30:25;27.40;93.30
6865;DHT22;3471;49.678;8.388;2023-04-30T12:32:58;27.80;92.70
6865;DHT22;3471;49.678;8.388;2023-04-30T12:35:28;28.10;93.90
6865;DHT22;3471;49.678;8.388;2023-04-30T12:38:01;28.50;93.10
6865;DHT22;3471;49.678;8.388;2023-04-30T12:40:27;28.80;91.70
6865;DHT22;3471;49.678;8.388;2023-04-30T12:43:05;28.90;91.80
6865;DHT22;3471;49.678;8.388;2023-04-30T12:45:51;29.20;89.40
6865;DHT22;3471;49.678;8.388;2023-04-30T12:48:21;29.30;90.90
6865;DHT22;3471;49.678;8.388;2023-04-30T12:50:54;29.20;91.30
6865;DHT22;3471;49.678;8.388;2023-04-30T12:53:20;29.10;87.50
6865;DHT22;3471;49.678;8.388;2023-04-30T12:56:08;28.90;87.60
6865;DHT22;3471;49.678;8.388;2023-04-30T12:58:38;28.60;90.20
6865;DHT22;3471;49.678;8.388;2023-04-30T13:01:04;28.40;89.70
6865;DHT22;3471;49.678;8.388;2023-04-30T13:03:29;28.20;90.70
6865;DHT22;3471;49.678;8.388;2023-04-30T13:05:55;28.10;90.00
6865;DHT22;3471;49.678;8.388;2023-04-30T13:08:23;28.10;90.40
6865;DHT22;3471;49.678;8.388;2023-04-30T13:10:49;28.10;87.90
6865;DHT22;3471;49.678;8.388;2023-04-30T13:13:15;27.90;90.40
6865;DHT22;3471;49.678;8.388;2023-04-30T13:15:41;27.80;88.60
6865;DHT22;3471;49.678;8.388;2023-04-30T13:18:07;27.70;89.30
6865;DHT22;3471;49.678;8.388;2023-04-30T13:20:37;27.80;90.40
6865;DHT22;3471;49.678;8.388;2023-04-30T13:23:03;27.60;90.50
6865;DHT22;3471;49.678;8.388;2023-04-30T13:25:29;27.70;91.00
6865;DHT22;3471;49.678;8.388;2023-04-30T13:27:55;28.00;90.90
6865;DHT22;3471;49.678;8.388;2023-04-30T13:30:22;28.50;90.10
6865;DHT22;3471;49.678;8.388;2023-04-30T13:32:47;28.90;89.70
6865;DHT22;3471;49.678;8.388;2023-04-30T13:35:13;28.90;84.70
6865;DHT22;3471;49.678;8.388;2023-04-30T13:37:39;29.00;88.00
6865;DHT22;3471;49.678;8.388;2023-04-30T13:40:06;29.20;86.20
6865;DHT22;3471;49.678;8.388;2023-04-30T13:42:32;29.40;83.60
6865;DHT22;3471;49.678;8.388;2023-04-30T13:44:58;29.60;87.40
6865;DHT22;3471;49.678;8.388;2023-04-30T13:47:23;29.50;84.20
6865;DHT22;3471;49.678;8.388;2023-04-30T13:49:49;29.20;84.50
6865;DHT22;3471;49.678;8.388;2023-04-30T13:52:15;29.20;84.70
6865;DHT22;3471;49.678;8.388;2023-04-30T13:54:40;29.40;81.50
6865;DHT22;3471;49.678;8.388;2023-04-30T13:57:06;29.50;80.90
6865;DHT22;3471;49.678;8.388;2023-04-30T13:59:32;29.60;85.10
6865;DHT22;3471;49.678;8.388;2023-04-30T14:01:58;29.60;84.50
6865;DHT22;3471;49.678;8.388;2023-04-30T14:04:23;29.60;82.00
6865;DHT22;3471;49.678;8.388;2023-04-30T14:06:50;29.80;83.80
6865;DHT22;3471;49.678;8.388;2023-04-30T14:09:15;29.80;83.40
6865;DHT22;3471;49.678;8.388;2023-04-30T14:11:42;30.00;79.30
6865;DHT22;3471;49.678;8.388;2023-04-30T14:14:07;30.00;84.30
6865;DHT22;3471;49.678;8.388;2023-04-30T14:16:33;30.20;77.00
6865;DHT22;3471;49.678;8.388;2023-04-30T14:18:59;30.40;77.30
6865;DHT22;3471;49.678;8.388;2023-04-30T14:21:25;30.50;77.70
6865;DHT22;3471;49.678;8.388;2023-04-30T14:23:51;30.70;76.90
6865;DHT22;3471;49.678;8.388;2023-04-30T14:26:17;30.60;79.90
6865;DHT22;3471;49.678;8.388;2023-04-30T14:28:43;30.50;79.40
6865;DHT22;3471;49.678;8.388;2023-04-30T14:31:08;30.50;78.10
6865;DHT22;3471;49.678;8.388;2023-04-30T14:33:35;30.50;80.10
6865;DHT22;3471;49.678;8.388;2023-04-30T14:36:00;30.40;74.70
6865;DHT22;3471;49.678;8.388;2023-04-30T14:38:26;30.40;76.00
6865;DHT22;3471;49.678;8.388;2023-04-30T14:40:52;30.00;80.00
6865;DHT22;3471;49.678;8.388;2023-04-30T14:43:18;29.90;77.80
6865;DHT22;3471;49.678;8.388;2023-04-30T14:45:44;29.90;78.40
6865;DHT22;3471;49.678;8.388;2023-04-30T14:48:10;29.90;79.00
6865;DHT22;3471;49.678;8.388;2023-04-30T14:50:36;30.00;80.40
6865;DHT22;3471;49.678;8.388;2023-04-30T14:53:05;30.20;82.10
6865;DHT22;3471;49.678;8.388;2023-04-30T14:55:31;30.20;74.70
6865;DHT22;3471;49.678;8.388;2023-04-30T14:57:58;30.40;77.70
6865;DHT22;3471;49.678;8.388;2023-04-30T15:00:24;30.30;79.80
6865;DHT22;3471;49.678;8.388;2023-04-30T15:02:51;30.30;77.60
6865;DHT22;3471;49.678;8.388;2023-04-30T15:05:17;30.10;78.80
6865;DHT22;3471;49.678;8.388;2023-04-30T15:07:42;29.90;74.40
6865;DHT22;3471;49.678;8.388;2023-04-30T15:10:08;30.00;75.20
6865;DHT22;3471;49.678;8.388;2023-04-30T15:12:34;29.80;75.80
6865;DHT22;3471;49.678;8.388;2023-04-30T15:15:01;29.90;79.20
6865;DHT22;3471;49.678;8.388;2023-04-30T15:17:26;29.90;75.20
6865;DHT22;3471;49.678;8.388;2023-04-30T15:19:53;30.10;74.50
6865;DHT22;3471;49.678;8.388;2023-04-30T15:22:19;30.40;77.60
6865;DHT22;3471;49.678;8.388;2023-04-30T15:24:45;30.50;74.00
6865;DHT22;3471;49.678;8.388;2023-04-30T15:27:11;30.70;74.50
6865;DHT22;3471;49.678;8.388;2023-04-30T15:29:37;30.90;79.20
6865;DHT22;3471;49.678;8.388;2023-04-30T15:32:04;31.10;75.30
6865;DHT22;3471;49.678;8.388;2023-04-30T15:34:30;31.20;75.60
6865;DHT22;3471;49.678;8.388;2023-04-30T15:36:56;30.80;77.40
6865;DHT22;3471;49.678;8.388;2023-04-30T15:39:23;30.60;76.30
6865;DHT22;3471;49.678;8.388;2023-04-30T15:41:49;30.40;75.90
6865;DHT22;3471;49.678;8.388;2023-04-30T15:44:15;30.20;71.10
6865;DHT22;3471;49.678;8.388;2023-04-30T15:46:40;29.80;73.10
6865;DHT22;3471;49.678;8.388;2023-04-30T15:49:06;29.20;74.70
6865;DHT22;3471;49.678;8.388;2023-04-30T15:51:31;28.60;74.30
6865;DHT22;3471;49.678;8.388;2023-04-30T15:53:58;27.90;73.30
6865;DHT22;3471;49.678;8.388;2023-04-30T15:56:24;27.40;76.80
6865;DHT22;3471;49.678;8.388;2023-04-30T15:58:52;26.80;78.40
6865;DHT22;3471;49.678;8.388;2023-04-30T16:01:18;26.30;77.80
6865;DHT22;3471;49.678;8.388;2023-04-30T16:03:43;26.10;80.60
6865;DHT22;3471;49.678;8.388;2023-04-30T16:06:09;26.00;82.50
6865;DHT22;3471;49.678;8.388;2023-04-30T16:08:35;25.80;85.50
6865;DHT22;3471;49.678;8.388;2023-04-30T16:11:01;25.70;81.50
6865;DHT22;3471;49.678;8.388;2023-04-30T16:13:28;25.70;78.20
6865;DHT22;3471;49.678;8.388;2023-04-30T16:15:53;25.70;80.90
6865;DHT22;3471;49.678;8.388;2023-04-30T16:18:19;25.80;79.40